EmailTwitter


Observations de surface / Royaume-Uni / EGLL (03772)

Régions: Québec | Canada | États-Unis | Europe | France | UK | Ailleurs
Station
Affichage
Infos & localisation pour EGLL (03772) | Aide pour décoder les METARs

Observations prises le 2020-09-22 à 01H20 UTC à LONDON/HEATHROW, UK (EGLL)

Température: 14.0 Celsius

Point de rosée: 12.0 Celsius

Humidité relative: 88%

Vents: Sud-ouest à 2 km/h ou 1 noeuds.

Pression au niveau moyen de la mer: 101.40 kilopascals.

Visibilité horizontale: 6.21 milles terrestres ou 9.94 kilomètres.

Observation METAR:

EGLL 220120Z AUTO 23001KT 9999 NCD 14/12 Q1014 NOSIG=